Main page
METAR-TAF:

METAR-TAF

Airports :

Baghdad International Airport

Baghdad, Iraq

latitude: 33-15-45N, longitude: 44-14-04E, elevation: 35 m

Current weather observation

The report was made 57 minutes ago, at 21:00 UTC
Wind 5 kt from the West/Southwest, varying between South/Southwest and West/Northwest
Temperature 31°C
Humidity 29%
Pressure 1002 hPa
Visibility 10 km or more
no clouds below 1500 m and no cumulonimbus

METAR: ORBI 172100Z 24005KT 210V300 CAVOK 31/11 Q1002 NOSIG

Time: 00:57 (21:57 UTC)

Forecast

The report was made 5 hours and 57 minutes ago, at 16:00 UTC
Forecast valid from 17 at 18 UTC to 18 at 18 UTC
Wind 6 kt from the North/Northwest
Visibility 10 km or more
no clouds below 1500 m and no cumulonimbus
Becoming
from 18 at 02 UTC to 18 at 04 UTC
Wind 16 kt from the West/Northwest
Visibility: 7000 m

TAF: ORBI 171600Z 1718/1818 34006KT CAVOK BECMG 1802/1804 30016KT 7000 NSC

Weather observations and forecasts of more than 4000 airports (METAR and TAF reports).

The available stations are represented by yellow and red dots on the map.

Hover mouse over dot to see the name of the station.

Then click to see weather observations and forecasts.

To change the map : click on the green buttons with a black cross to zoom in, on the green button with a dash to zoom out, or on the green arrows for adjacent maps.


METAR-TAF: